sensor_id;sensor_type;location;lat;lon;timestamp;pressure;altitude;pressure_sealevel;temperature;humidity
34124;BME280;13153;52.316;21.166;2023-03-23T00:01:48;99712.03;;;14.45;55.93
34124;BME280;13153;52.316;21.166;2023-03-23T00:04:17;99713.81;;;14.52;55.88
34124;BME280;13153;52.316;21.166;2023-03-23T00:06:43;99710.28;;;14.53;55.30
34124;BME280;13153;52.316;21.166;2023-03-23T00:09:13;99703.22;;;14.49;55.50
34124;BME280;13153;52.316;21.166;2023-03-23T00:11:42;99697.03;;;14.52;55.70
34124;BME280;13153;52.316;21.166;2023-03-23T00:14:09;99699.69;;;14.53;55.28
34124;BME280;13153;52.316;21.166;2023-03-23T00:16:42;99700.56;;;14.56;55.29
34124;BME280;13153;52.316;21.166;2023-03-23T00:19:12;99698.81;;;14.56;55.68
34124;BME280;13153;52.316;21.166;2023-03-23T00:21:40;99703.22;;;14.56;55.41
34124;BME280;13153;52.316;21.166;2023-03-23T00:24:15;99695.28;;;14.51;55.28
34124;BME280;13153;52.316;21.166;2023-03-23T00:26:48;99697.03;;;14.53;55.74
34124;BME280;13153;52.316;21.166;2023-03-23T00:29:21;99694.38;;;14.52;55.71
34124;BME280;13153;52.316;21.166;2023-03-23T00:31:48;99701.44;;;14.54;55.70
34124;BME280;13153;52.316;21.166;2023-03-23T00:34:24;99686.44;;;14.53;55.34
34124;BME280;13153;52.316;21.166;2023-03-23T00:36:55;99693.50;;;14.54;55.62
34124;BME280;13153;52.316;21.166;2023-03-23T00:39:26;99677.63;;;14.51;55.30
34124;BME280;13153;52.316;21.166;2023-03-23T00:41:53;99682.91;;;14.48;55.71
34124;BME280;13153;52.316;21.166;2023-03-23T00:44:30;99671.44;;;14.46;55.76
34124;BME280;13153;52.316;21.166;2023-03-23T00:46:58;99679.44;;;14.43;55.85
34124;BME280;13153;52.316;21.166;2023-03-23T00:49:25;99677.66;;;14.42;55.75
34124;BME280;13153;52.316;21.166;2023-03-23T00:51:57;99673.25;;;14.41;56.02
34124;BME280;13153;52.316;21.166;2023-03-23T00:54:24;99684.72;;;14.43;55.63
34124;BME280;13153;52.316;21.166;2023-03-23T00:56:51;99674.09;;;14.37;56.13
34124;BME280;13153;52.316;21.166;2023-03-23T00:59:18;99672.34;;;14.36;56.01
34124;BME280;13153;52.316;21.166;2023-03-23T01:01:45;99672.34;;;14.36;56.02
34124;BME280;13153;52.316;21.166;2023-03-23T01:04:11;99664.38;;;14.39;56.01
34124;BME280;13153;52.316;21.166;2023-03-23T01:06:40;99668.81;;;14.31;55.97
34124;BME280;13153;52.316;21.166;2023-03-23T01:09:09;99671.44;;;14.34;56.21
34124;BME280;13153;52.316;21.166;2023-03-23T01:11:36;99660.88;;;14.37;56.00
34124;BME280;13153;52.316;21.166;2023-03-23T01:14:04;99653.81;;;14.36;56.06
34124;BME280;13153;52.316;21.166;2023-03-23T01:16:30;99650.28;;;14.37;56.17
34124;BME280;13153;52.316;21.166;2023-03-23T01:18:56;99658.22;;;14.39;56.12
34124;BME280;13153;52.316;21.166;2023-03-23T01:21:22;99653.81;;;14.39;55.85
34124;BME280;13153;52.316;21.166;2023-03-23T01:23:48;99649.41;;;14.40;55.55
34124;BME280;13153;52.316;21.166;2023-03-23T01:26:22;99655.56;;;14.40;55.97
34124;BME280;13153;52.316;21.166;2023-03-23T01:28:48;99655.59;;;14.43;55.99
34124;BME280;13153;52.316;21.166;2023-03-23T01:31:21;99650.28;;;14.46;55.91
34124;BME280;13153;52.316;21.166;2023-03-23T01:33:49;99656.44;;;14.45;55.50
34124;BME280;13153;52.316;21.166;2023-03-23T01:36:21;99664.38;;;14.48;55.51
34124;BME280;13153;52.316;21.166;2023-03-23T01:38:49;99664.38;;;14.47;55.70
34124;BME280;13153;52.316;21.166;2023-03-23T01:41:17;99659.97;;;14.50;55.81
34124;BME280;13153;52.316;21.166;2023-03-23T01:46:52;99652.91;;;14.52;55.71
34124;BME280;13153;52.316;21.166;2023-03-23T01:49:33;99652.91;;;14.54;55.49
34124;BME280;13153;52.316;21.166;2023-03-23T01:52:14;99654.69;;;14.52;55.52
34124;BME280;13153;52.316;21.166;2023-03-23T01:54:44;99655.56;;;14.52;55.67
34124;BME280;13153;52.316;21.166;2023-03-23T01:57:16;99659.97;;;14.52;55.68
34124;BME280;13153;52.316;21.166;2023-03-23T01:59:47;99649.38;;;14.47;55.42
34124;BME280;13153;52.316;21.166;2023-03-23T02:02:15;99645.84;;;14.47;55.60
34124;BME280;13153;52.316;21.166;2023-03-23T02:04:41;99643.22;;;14.48;55.79
34124;BME280;13153;52.316;21.166;2023-03-23T02:07:09;99642.34;;;14.45;55.85
34124;BME280;13153;52.316;21.166;2023-03-23T02:09:35;99642.34;;;14.45;55.88
34124;BME280;13153;52.316;21.166;2023-03-23T02:12:01;99637.03;;;14.40;56.10
34124;BME280;13153;52.316;21.166;2023-03-23T02:14:28;99631.75;;;14.37;56.06
34124;BME280;13153;52.316;21.166;2023-03-23T02:17:33;99628.22;;;14.40;55.86
34124;BME280;13153;52.316;21.166;2023-03-23T02:34:33;99606.19;;;14.27;56.24
34124;BME280;13153;52.316;21.166;2023-03-23T02:37:36;99607.94;;;14.22;56.44
34124;BME280;13153;52.316;21.166;2023-03-23T02:40:20;99610.59;;;14.24;56.54
34124;BME280;13153;52.316;21.166;2023-03-23T02:42:53;99611.47;;;14.21;56.20
34124;BME280;13153;52.316;21.166;2023-03-23T02:45:23;99607.06;;;14.18;56.59
34124;BME280;13153;52.316;21.166;2023-03-23T02:47:54;99608.81;;;14.21;56.27
34124;BME280;13153;52.316;21.166;2023-03-23T02:50:24;99610.59;;;14.14;56.27
34124;BME280;13153;52.316;21.166;2023-03-23T02:52:55;99612.34;;;14.15;56.61
34124;BME280;13153;52.316;21.166;2023-03-23T02:55:25;99600.88;;;14.15;56.54
34124;BME280;13153;52.316;21.166;2023-03-23T02:57:53;99608.81;;;14.13;56.63
34124;BME280;13153;52.316;21.166;2023-03-23T03:00:20;99612.34;;;14.11;56.86
34124;BME280;13153;52.316;21.166;2023-03-23T03:02:51;99613.22;;;14.13;56.48
34124;BME280;13153;52.316;21.166;2023-03-23T03:08:25;99611.47;;;14.19;56.80
34124;BME280;13153;52.316;21.166;2023-03-23T03:11:07;99607.06;;;14.17;56.19
34124;BME280;13153;52.316;21.166;2023-03-23T03:19:27;99603.53;;;13.98;57.12
34124;BME280;13153;52.316;21.166;2023-03-23T03:21:58;99607.06;;;14.05;57.21
34124;BME280;13153;52.316;21.166;2023-03-23T03:24:28;99607.94;;;14.13;56.89
34124;BME280;13153;52.316;21.166;2023-03-23T03:26:59;99613.22;;;14.14;56.63
34124;BME280;13153;52.316;21.166;2023-03-23T03:29:34;99609.72;;;14.14;56.73
34124;BME280;13153;52.316;21.166;2023-03-23T03:32:04;99609.72;;;14.14;56.65
34124;BME280;13153;52.316;21.166;2023-03-23T03:34:33;99616.75;;;14.15;56.63
34124;BME280;13153;52.316;21.166;2023-03-23T03:37:00;99615.88;;;14.17;56.48
34124;BME280;13153;52.316;21.166;2023-03-23T03:39:27;99614.13;;;14.15;56.62
34124;BME280;13153;52.316;21.166;2023-03-23T03:41:54;99624.69;;;14.12;56.68
34124;BME280;13153;52.316;21.166;2023-03-23T03:44:20;99622.94;;;14.05;56.64
34124;BME280;13153;52.316;21.166;2023-03-23T03:46:46;99623.81;;;14.02;57.12
34124;BME280;13153;52.316;21.166;2023-03-23T03:49:12;99624.69;;;14.01;56.92
34124;BME280;13153;52.316;21.166;2023-03-23T03:51:39;99627.34;;;14.03;56.90
34124;BME280;13153;52.316;21.166;2023-03-23T03:54:06;99620.28;;;13.94;57.07
34124;BME280;13153;52.316;21.166;2023-03-23T03:56:33;99622.91;;;13.88;57.28
34124;BME280;13153;52.316;21.166;2023-03-23T03:59:07;99615.91;;;13.84;57.42
34124;BME280;13153;52.316;21.166;2023-03-23T04:01:34;99612.38;;;13.79;57.46
34124;BME280;13153;52.316;21.166;2023-03-23T04:04:00;99613.25;;;13.76;57.92
34124;BME280;13153;52.316;21.166;2023-03-23T04:06:26;99604.44;;;13.77;57.87
34124;BME280;13153;52.316;21.166;2023-03-23T04:08:55;99602.66;;;13.73;57.93
34124;BME280;13153;52.316;21.166;2023-03-23T04:11:21;99593.84;;;13.70;57.93
34124;BME280;13153;52.316;21.166;2023-03-23T04:13:47;99591.19;;;13.68;58.11
34124;BME280;13153;52.316;21.166;2023-03-23T04:16:13;99603.53;;;13.69;57.89
34124;BME280;13153;52.316;21.166;2023-03-23T04:18:38;99597.38;;;13.67;58.15
34124;BME280;13153;52.316;21.166;2023-03-23T04:21:05;99608.81;;;13.62;58.43
34124;BME280;13153;52.316;21.166;2023-03-23T04:23:34;99606.19;;;13.66;57.80
34124;BME280;13153;52.316;21.166;2023-03-23T04:26:02;99607.06;;;13.67;57.78
34124;BME280;13153;52.316;21.166;2023-03-23T04:28:29;99601.78;;;13.68;57.95
34124;BME280;13153;52.316;21.166;2023-03-23T04:30:55;99605.28;;;13.64;57.96
34124;BME280;13153;52.316;21.166;2023-03-23T04:33:26;99602.63;;;13.60;58.08
34124;BME280;13153;52.316;21.166;2023-03-23T04:35:54;99596.47;;;13.61;57.95
34124;BME280;13153;52.316;21.166;2023-03-23T04:38:21;99598.22;;;13.60;57.72
34124;BME280;13153;52.316;21.166;2023-03-23T04:40:51;99600.00;;;13.61;58.13
34124;BME280;13153;52.316;21.166;2023-03-23T04:43:20;99607.06;;;13.62;57.96
34124;BME280;13153;52.316;21.166;2023-03-23T04:45:53;99600.88;;;13.65;58.02
34124;BME280;13153;52.316;21.166;2023-03-23T04:48:26;99589.44;;;13.66;58.03
34124;BME280;13153;52.316;21.166;2023-03-23T04:50:53;99594.72;;;13.69;57.67
34124;BME280;13153;52.316;21.166;2023-03-23T04:53:19;99585.91;;;13.70;57.81
34124;BME280;13153;52.316;21.166;2023-03-23T04:55:47;99593.84;;;13.68;57.93
34124;BME280;13153;52.316;21.166;2023-03-23T04:58:16;99594.72;;;13.76;57.96
34124;BME280;13153;52.316;21.166;2023-03-23T05:00:43;99602.66;;;13.81;57.61
34124;BME280;13153;52.316;21.166;2023-03-23T05:03:18;99591.19;;;13.91;57.57
34124;BME280;13153;52.316;21.166;2023-03-23T05:05:46;99587.66;;;14.04;57.38
34124;BME280;13153;52.316;21.166;2023-03-23T05:08:23;99588.53;;;14.08;57.32
34124;BME280;13153;52.316;21.166;2023-03-23T05:10:57;99593.84;;;14.14;56.42
34124;BME280;13153;52.316;21.166;2023-03-23T05:13:24;99590.31;;;14.21;56.57
34124;BME280;13153;52.316;21.166;2023-03-23T05:15:50;99587.66;;;14.29;56.33
34124;BME280;13153;52.316;21.166;2023-03-23T05:18:16;99586.75;;;14.33;56.16
34124;BME280;13153;52.316;21.166;2023-03-23T05:20:43;99587.66;;;14.33;56.15
34124;BME280;13153;52.316;21.166;2023-03-23T05:23:09;99579.72;;;14.33;56.32
34124;BME280;13153;52.316;21.166;2023-03-23T05:25:36;99579.72;;;14.32;56.22
34124;BME280;13153;52.316;21.166;2023-03-23T05:28:07;99592.06;;;14.31;56.47
34124;BME280;13153;52.316;21.166;2023-03-23T05:30:34;99589.41;;;14.34;56.14
34124;BME280;13153;52.316;21.166;2023-03-23T05:33:01;99588.53;;;14.40;56.30
34124;BME280;13153;52.316;21.166;2023-03-23T05:35:27;99580.59;;;14.43;56.13
34124;BME280;13153;52.316;21.166;2023-03-23T05:37:52;99586.75;;;14.45;56.18
34124;BME280;13153;52.316;21.166;2023-03-23T05:40:19;99584.97;;;14.45;56.13
34124;BME280;13153;52.316;21.166;2023-03-23T05:42:47;99584.09;;;14.46;56.01
34124;BME280;13153;52.316;21.166;2023-03-23T05:45:14;99588.50;;;14.49;55.84
34124;BME280;13153;52.316;21.166;2023-03-23T05:47:40;99584.97;;;14.54;55.90
34124;BME280;13153;52.316;21.166;2023-03-23T05:50:08;99592.91;;;14.62;56.16
34124;BME280;13153;52.316;21.166;2023-03-23T05:52:35;99594.63;;;14.68;56.33
34124;BME280;13153;52.316;21.166;2023-03-23T05:55:03;99604.31;;;14.78;55.65
34124;BME280;13153;52.316;21.166;2023-03-23T05:57:30;99598.13;;;14.85;55.38
34124;BME280;13153;52.316;21.166;2023-03-23T05:59:56;99601.63;;;14.93;55.38
34124;BME280;13153;52.316;21.166;2023-03-23T06:02:24;99601.63;;;14.96;55.33
34124;BME280;13153;52.316;21.166;2023-03-23T06:04:51;99605.97;;;15.03;55.17
34124;BME280;13153;52.316;21.166;2023-03-23T06:07:23;99613.91;;;15.09;54.74
34124;BME280;13153;52.316;21.166;2023-03-23T06:09:50;99612.97;;;15.21;54.99
34124;BME280;13153;52.316;21.166;2023-03-23T06:12:16;99615.56;;;15.33;54.35
34124;BME280;13153;52.316;21.166;2023-03-23T06:14:47;99607.53;;;15.50;54.12
34124;BME280;13153;52.316;21.166;2023-03-23T06:17:17;99610.06;;;15.67;53.46
34124;BME280;13153;52.316;21.166;2023-03-23T06:19:44;99612.63;;;15.82;53.07
34124;BME280;13153;52.316;21.166;2023-03-23T06:22:12;99613.44;;;15.93;52.87
34124;BME280;13153;52.316;21.166;2023-03-23T06:24:38;99619.53;;;16.06;52.64
34124;BME280;13153;52.316;21.166;2023-03-23T06:27:04;99607.97;;;16.13;52.09
34124;BME280;13153;52.316;21.166;2023-03-23T06:29:30;99613.22;;;16.17;52.11
34124;BME280;13153;52.316;21.166;2023-03-23T06:32:01;99605.19;;;16.25;51.70
34124;BME280;13153;52.316;21.166;2023-03-23T06:34:31;99605.97;;;16.36;51.48
34124;BME280;13153;52.316;21.166;2023-03-23T06:36:58;99612.97;;;16.45;51.39
34124;BME280;13153;52.316;21.166;2023-03-23T06:39:24;99621.69;;;16.59;51.00
34124;BME280;13153;52.316;21.166;2023-03-23T06:41:50;99613.47;;;16.83;50.45
34124;BME280;13153;52.316;21.166;2023-03-23T06:44:17;99616.56;;;17.21;49.75
34124;BME280;13153;52.316;21.166;2023-03-23T06:46:43;99615.06;;;17.67;48.56
34124;BME280;13153;52.316;21.166;2023-03-23T06:49:09;99613.47;;;18.11;47.63
34124;BME280;13153;52.316;21.166;2023-03-23T06:51:36;99611.72;;;18.61;46.47
34124;BME280;13153;52.316;21.166;2023-03-23T06:54:04;99616.28;;;19.00;45.50
34124;BME280;13153;52.316;21.166;2023-03-23T06:56:31;99610.69;;;19.12;44.96
34124;BME280;13153;52.316;21.166;2023-03-23T06:58:57;99605.59;;;19.02;44.82
34124;BME280;13153;52.316;21.166;2023-03-23T07:01:23;99603.31;;;18.82;45.13
34124;BME280;13153;52.316;21.166;2023-03-23T07:03:49;99605.28;;;18.72;45.37
34124;BME280;13153;52.316;21.166;2023-03-23T07:06:15;99602.72;;;18.66;45.67
34124;BME280;13153;52.316;21.166;2023-03-23T07:08:41;99607.69;;;18.86;45.30
34124;BME280;13153;52.316;21.166;2023-03-23T07:11:07;99609.91;;;19.07;45.22
34124;BME280;13153;52.316;21.166;2023-03-23T07:13:35;99619.53;;;19.14;44.30
34124;BME280;13153;52.316;21.166;2023-03-23T07:16:05;99619.09;;;19.36;43.89
34124;BME280;13153;52.316;21.166;2023-03-23T07:18:32;99606.69;;;19.73;43.52
34124;BME280;13153;52.316;21.166;2023-03-23T07:20:58;99614.25;;;20.27;43.16
34124;BME280;13153;52.316;21.166;2023-03-23T07:23:24;99618.41;;;20.74;42.12
34124;BME280;13153;52.316;21.166;2023-03-23T07:25:50;99622.16;;;20.98;42.66
34124;BME280;13153;52.316;21.166;2023-03-23T07:28:16;99626.72;;;21.27;41.31
34124;BME280;13153;52.316;21.166;2023-03-23T07:30:42;99629.19;;;21.35;40.59
34124;BME280;13153;52.316;21.166;2023-03-23T07:33:09;99623.16;;;21.56;40.04
34124;BME280;13153;52.316;21.166;2023-03-23T07:35:35;99615.72;;;21.66;39.88
34124;BME280;13153;52.316;21.166;2023-03-23T07:38:02;99621.91;;;21.68;39.63
34124;BME280;13153;52.316;21.166;2023-03-23T07:40:30;99624.75;;;21.91;39.66
34124;BME280;13153;52.316;21.166;2023-03-23T07:42:59;99628.59;;;22.11;38.73
34124;BME280;13153;52.316;21.166;2023-03-23T07:45:27;99626.50;;;22.20;38.77
34124;BME280;13153;52.316;21.166;2023-03-23T07:47:53;99625.38;;;22.27;38.43
34124;BME280;13153;52.316;21.166;2023-03-23T07:50:19;99620.38;;;22.17;38.49
34124;BME280;13153;52.316;21.166;2023-03-23T07:52:48;99624.84;;;22.16;38.66
34124;BME280;13153;52.316;21.166;2023-03-23T07:55:14;99624.31;;;22.05;38.70
34124;BME280;13153;52.316;21.166;2023-03-23T07:57:47;99619.41;;;21.91;38.84
34124;BME280;13153;52.316;21.166;2023-03-23T08:00:17;99626.16;;;22.03;38.74
34124;BME280;13153;52.316;21.166;2023-03-23T08:02:54;99616.72;;;22.19;38.36
34124;BME280;13153;52.316;21.166;2023-03-23T08:05:24;99614.13;;;22.16;38.00
34124;BME280;13153;52.316;21.166;2023-03-23T08:07:52;99611.78;;;22.05;38.36
34124;BME280;13153;52.316;21.166;2023-03-23T08:10:22;99611.41;;;22.18;37.98
34124;BME280;13153;52.316;21.166;2023-03-23T08:12:53;99609.53;;;22.20;37.84
34124;BME280;13153;52.316;21.166;2023-03-23T08:15:19;99607.94;;;22.14;38.14
34124;BME280;13153;52.316;21.166;2023-03-23T08:17:48;99614.53;;;22.04;38.58
34124;BME280;13153;52.316;21.166;2023-03-23T08:20:14;99606.13;;;22.15;38.58
34124;BME280;13153;52.316;21.166;2023-03-23T08:22:44;99601.56;;;22.45;37.91
34124;BME280;13153;52.316;21.166;2023-03-23T08:25:13;99595.38;;;22.43;37.65
34124;BME280;13153;52.316;21.166;2023-03-23T08:27:40;99590.28;;;22.35;37.75
34124;BME280;13153;52.316;21.166;2023-03-23T08:30:18;99589.41;;;22.34;38.06
34124;BME280;13153;52.316;21.166;2023-03-23T08:32:49;99576.28;;;22.52;37.51
34124;BME280;13153;52.316;21.166;2023-03-23T08:35:16;99580.06;;;22.46;36.69
34124;BME280;13153;52.316;21.166;2023-03-23T08:37:44;99571.91;;;22.49;36.44
34124;BME280;13153;52.316;21.166;2023-03-23T08:40:13;99562.00;;;22.51;36.79
34124;BME280;13153;52.316;21.166;2023-03-23T08:42:42;99567.00;;;22.60;37.05
34124;BME280;13153;52.316;21.166;2023-03-23T08:45:12;99573.66;;;22.50;37.17
34124;BME280;13153;52.316;21.166;2023-03-23T08:47:40;99573.25;;;22.36;36.98
34124;BME280;13153;52.316;21.166;2023-03-23T08:50:11;99567.59;;;22.19;37.24
34124;BME280;13153;52.316;21.166;2023-03-23T08:52:38;99567.84;;;22.11;37.35
34124;BME280;13153;52.316;21.166;2023-03-23T08:55:05;99577.41;;;21.92;37.54
34124;BME280;13153;52.316;21.166;2023-03-23T08:57:31;99574.06;;;21.85;37.63
34124;BME280;13153;52.316;21.166;2023-03-23T08:59:57;99591.09;;;21.83;37.75
34124;BME280;13153;52.316;21.166;2023-03-23T09:02:26;99592.56;;;21.65;37.72
34124;BME280;13153;52.316;21.166;2023-03-23T09:04:53;99584.03;;;21.52;38.00
34124;BME280;13153;52.316;21.166;2023-03-23T09:07:19;99585.19;;;21.43;37.97
34124;BME280;13153;52.316;21.166;2023-03-23T09:09:46;99590.88;;;21.33;38.40
34124;BME280;13153;52.316;21.166;2023-03-23T09:12:12;99586.78;;;21.20;38.54
34124;BME280;13153;52.316;21.166;2023-03-23T09:14:39;99587.97;;;21.09;38.86
34124;BME280;13153;52.316;21.166;2023-03-23T09:17:05;99589.25;;;20.96;39.00
34124;BME280;13153;52.316;21.166;2023-03-23T09:19:34;99585.41;;;20.75;38.94
34124;BME280;13153;52.316;21.166;2023-03-23T09:22:01;99588.38;;;20.65;39.33
34124;BME280;13153;52.316;21.166;2023-03-23T09:24:28;99585.03;;;20.57;39.91
34124;BME280;13153;52.316;21.166;2023-03-23T09:26:53;99586.91;;;20.53;39.66
34124;BME280;13153;52.316;21.166;2023-03-23T09:29:19;99580.88;;;20.45;39.73
34124;BME280;13153;52.316;21.166;2023-03-23T09:31:46;99576.41;;;20.46;39.85
34124;BME280;13153;52.316;21.166;2023-03-23T09:34:14;99576.25;;;20.52;39.90
34124;BME280;13153;52.316;21.166;2023-03-23T09:36:44;99572.88;;;20.45;40.12
34124;BME280;13153;52.316;21.166;2023-03-23T09:39:11;99568.44;;;20.44;39.51
34124;BME280;13153;52.316;21.166;2023-03-23T09:41:47;99569.28;;;20.46;39.45
34124;BME280;13153;52.316;21.166;2023-03-23T09:50:20;99547.28;;;20.35;39.32
34124;BME280;13153;52.316;21.166;2023-03-23T09:52:58;99542.59;;;20.44;39.14
34124;BME280;13153;52.316;21.166;2023-03-23T09:55:25;99551.06;;;20.60;38.99
34124;BME280;13153;52.316;21.166;2023-03-23T09:58:20;99541.97;;;20.67;38.68
34124;BME280;13153;52.316;21.166;2023-03-23T10:01:13;99538.25;;;20.73;38.32
34124;BME280;13153;52.316;21.166;2023-03-23T10:03:45;99538.88;;;20.81;38.39
34124;BME280;13153;52.316;21.166;2023-03-23T10:06:17;99537.78;;;20.88;38.27
34124;BME280;13153;52.316;21.166;2023-03-23T10:08:54;99539.41;;;20.94;38.50
34124;BME280;13153;52.316;21.166;2023-03-23T10:11:56;99544.38;;;21.06;38.06
34124;BME280;13153;52.316;21.166;2023-03-23T10:14:53;99540.53;;;21.16;38.11
34124;BME280;13153;52.316;21.166;2023-03-23T10:17:51;99532.09;;;21.30;37.42
34124;BME280;13153;52.316;21.166;2023-03-23T10:20:59;99518.84;;;21.53;37.04
34124;BME280;13153;52.316;21.166;2023-03-23T10:24:10;99528.63;;;21.82;37.00
34124;BME280;13153;52.316;21.166;2023-03-23T10:27:28;99513.34;;;22.12;36.39
34124;BME280;13153;52.316;21.166;2023-03-23T10:30:19;99519.91;;;22.28;36.02
34124;BME280;13153;52.316;21.166;2023-03-23T10:33:47;99510.47;;;22.43;35.66
34124;BME280;13153;52.316;21.166;2023-03-23T10:39:17;99497.94;;;22.44;34.22
34124;BME280;13153;52.316;21.166;2023-03-23T10:41:44;99495.28;;;22.17;34.49
34124;BME280;13153;52.316;21.166;2023-03-23T10:44:16;99494.97;;;22.26;34.77
34124;BME280;13153;52.316;21.166;2023-03-23T10:46:55;99498.03;;;22.40;34.51
34124;BME280;13153;52.316;21.166;2023-03-23T10:49:34;99513.09;;;22.45;34.24
34124;BME280;13153;52.316;21.166;2023-03-23T10:55:17;99492.56;;;22.44;34.63
34124;BME280;13153;52.316;21.166;2023-03-23T10:58:00;99493.50;;;22.43;34.70
34124;BME280;13153;52.316;21.166;2023-03-23T11:00:28;99490.66;;;22.47;34.31
34124;BME280;13153;52.316;21.166;2023-03-23T11:03:05;99496.59;;;22.55;34.14
34124;BME280;13153;52.316;21.166;2023-03-23T11:05:54;99503.63;;;22.58;34.26
34124;BME280;13153;52.316;21.166;2023-03-23T11:08:30;99494.44;;;22.65;33.53
34124;BME280;13153;52.316;21.166;2023-03-23T11:11:16;99491.38;;;22.52;33.18
34124;BME280;13153;52.316;21.166;2023-03-23T11:13:45;99496.63;;;22.54;33.75
34124;BME280;13153;52.316;21.166;2023-03-23T11:16:31;99496.41;;;22.60;33.92
34124;BME280;13153;52.316;21.166;2023-03-23T11:19:00;99481.75;;;22.70;33.66
34124;BME280;13153;52.316;21.166;2023-03-23T11:21:27;99484.38;;;22.71;32.92
34124;BME280;13153;52.316;21.166;2023-03-23T11:23:58;99482.44;;;22.75;33.25
34124;BME280;13153;52.316;21.166;2023-03-23T11:26:33;99474.44;;;22.73;33.20
34124;BME280;13153;52.316;21.166;2023-03-23T11:29:22;99470.19;;;22.68;33.27
34124;BME280;13153;52.316;21.166;2023-03-23T11:31:53;99474.75;;;22.66;33.31
34124;BME280;13153;52.316;21.166;2023-03-23T11:34:40;99474.44;;;22.73;34.01
34124;BME280;13153;52.316;21.166;2023-03-23T11:37:41;99479.44;;;22.84;33.79
34124;BME280;13153;52.316;21.166;2023-03-23T11:42:49;99460.56;;;22.87;33.35
34124;BME280;13153;52.316;21.166;2023-03-23T11:48:34;99458.03;;;22.83;33.27
34124;BME280;13153;52.316;21.166;2023-03-23T11:51:36;99429.84;;;22.71;31.17
34124;BME280;13153;52.316;21.166;2023-03-23T11:54:25;99429.16;;;22.66;31.58
34124;BME280;13153;52.316;21.166;2023-03-23T11:56:52;99426.13;;;22.75;31.46
34124;BME280;13153;52.316;21.166;2023-03-23T11:59:31;99443.03;;;22.77;31.32
34124;BME280;13153;52.316;21.166;2023-03-23T12:02:42;99422.31;;;22.82;32.04
34124;BME280;13153;52.316;21.166;2023-03-23T12:14:25;99414.94;;;22.87;31.60
34124;BME280;13153;52.316;21.166;2023-03-23T12:26:08;99411.50;;;22.84;32.58
34124;BME280;13153;52.316;21.166;2023-03-23T12:34:48;99377.41;;;23.09;32.69
34124;BME280;13153;52.316;21.166;2023-03-23T12:40:36;99378.94;;;23.15;32.62
34124;BME280;13153;52.316;21.166;2023-03-23T12:43:20;99382.50;;;23.15;31.93
34124;BME280;13153;52.316;21.166;2023-03-23T12:51:59;99397.78;;;23.13;32.68
34124;BME280;13153;52.316;21.166;2023-03-23T12:54:39;99385.25;;;23.14;32.72
34124;BME280;13153;52.316;21.166;2023-03-23T12:57:09;99384.25;;;23.16;32.54
34124;BME280;13153;52.316;21.166;2023-03-23T12:59:55;99381.91;;;23.09;32.24
34124;BME280;13153;52.316;21.166;2023-03-23T13:02:32;99381.63;;;23.15;32.61
34124;BME280;13153;52.316;21.166;2023-03-23T13:07:48;99379.75;;;23.17;32.53
34124;BME280;13153;52.316;21.166;2023-03-23T13:10:49;99381.63;;;23.15;32.95
34124;BME280;13153;52.316;21.166;2023-03-23T13:13:26;99388.75;;;23.16;33.04
34124;BME280;13153;52.316;21.166;2023-03-23T13:16:20;99379.06;;;23.12;32.83
34124;BME280;13153;52.316;21.166;2023-03-23T13:19:26;99380.53;;;22.98;33.14
34124;BME280;13153;52.316;21.166;2023-03-23T13:24:36;99379.94;;;22.67;33.37
34124;BME280;13153;52.316;21.166;2023-03-23T13:27:05;99367.94;;;22.54;33.50
34124;BME280;13153;52.316;21.166;2023-03-23T13:29:33;99370.72;;;22.52;33.87
34124;BME280;13153;52.316;21.166;2023-03-23T13:32:37;99376.47;;;22.42;34.08
34124;BME280;13153;52.316;21.166;2023-03-23T13:35:12;99382.88;;;22.37;34.35
34124;BME280;13153;52.316;21.166;2023-03-23T13:37:51;99383.13;;;22.31;34.40
34124;BME280;13153;52.316;21.166;2023-03-23T13:40:29;99382.31;;;22.29;34.32
34124;BME280;13153;52.316;21.166;2023-03-23T13:42:59;99382.41;;;22.26;34.74
34124;BME280;13153;52.316;21.166;2023-03-23T13:50:58;99376.47;;;22.18;35.16
34124;BME280;13153;52.316;21.166;2023-03-23T13:53:45;99377.44;;;22.16;35.35
34124;BME280;13153;52.316;21.166;2023-03-23T13:59:06;99373.41;;;22.04;35.43
34124;BME280;13153;52.316;21.166;2023-03-23T14:01:39;99367.13;;;22.05;35.78
34124;BME280;13153;52.316;21.166;2023-03-23T14:04:14;99368.06;;;22.04;35.67
34124;BME280;13153;52.316;21.166;2023-03-23T14:06:42;99379.75;;;22.01;35.55
34124;BME280;13153;52.316;21.166;2023-03-23T14:09:28;99390.53;;;21.98;35.50
34124;BME280;13153;52.316;21.166;2023-03-23T14:12:04;99382.63;;;21.95;35.60
34124;BME280;13153;52.316;21.166;2023-03-23T14:14:50;99392.59;;;21.92;35.52
34124;BME280;13153;52.316;21.166;2023-03-23T14:17:25;99396.19;;;21.91;35.73
34124;BME280;13153;52.316;21.166;2023-03-23T14:19:55;99396.25;;;21.89;35.67
34124;BME280;13153;52.316;21.166;2023-03-23T14:22:28;99403.38;;;21.90;35.88
34124;BME280;13153;52.316;21.166;2023-03-23T14:25:13;99397.44;;;21.81;36.01
34124;BME280;13153;52.316;21.166;2023-03-23T14:27:40;99397.56;;;21.78;36.06
34124;BME280;13153;52.316;21.166;2023-03-23T14:30:18;99414.56;;;21.77;36.05
34124;BME280;13153;52.316;21.166;2023-03-23T14:32:45;99421.19;;;21.65;36.46
34124;BME280;13153;52.316;21.166;2023-03-23T14:35:44;99416.81;;;21.62;36.53
34124;BME280;13153;52.316;21.166;2023-03-23T14:38:20;99420.47;;;21.60;36.55
34124;BME280;13153;52.316;21.166;2023-03-23T14:40:47;99421.50;;;21.56;36.91
34124;BME280;13153;52.316;21.166;2023-03-23T14:43:19;99431.03;;;21.38;37.04
34124;BME280;13153;52.316;21.166;2023-03-23T14:45:56;99428.63;;;21.30;37.29
34124;BME280;13153;52.316;21.166;2023-03-23T14:48:23;99434.75;;;21.34;37.58